createdAt,value
2019-02-24T14:58:01.588Z,20.89
2019-02-24T15:00:31.961Z,21.78
2019-02-24T15:03:02.349Z,21.53
2019-02-24T15:05:33.029Z,21.11
2019-02-24T15:08:03.339Z,21.51
2019-02-24T15:10:32.732Z,21.58
2019-02-24T15:13:02.217Z,21.75
2019-02-24T15:15:33.389Z,21.98
2019-02-24T15:18:02.850Z,22.27
2019-02-24T15:20:32.526Z,22.84
2019-02-24T15:23:01.979Z,23.04
2019-02-24T15:25:31.407Z,22.21
2019-02-24T15:28:00.851Z,22.87
2019-02-24T15:30:31.873Z,23.24
2019-02-24T15:33:01.336Z,23.21
2019-02-24T15:35:30.828Z,23.27
2019-02-24T15:38:00.236Z,24.75
2019-02-24T15:40:29.754Z,23.04
2019-02-24T15:42:59.186Z,24.04
2019-02-24T15:45:28.776Z,23.73
2019-02-24T15:47:58.720Z,24.08
2019-02-24T15:50:28.167Z,24.36
2019-02-24T15:52:57.585Z,24.36
2019-02-24T15:55:27.004Z,24.54
2019-02-24T15:57:56.427Z,24.84
2019-02-24T16:00:26.109Z,24.33
2019-02-24T16:03:01.501Z,24.78
2019-02-24T16:05:26.629Z,24.93
2019-02-24T16:07:56.104Z,25.25
2019-02-24T16:10:25.534Z,25.89
2019-02-24T16:12:55.005Z,25.20
2019-02-24T16:15:24.741Z,25.08
2019-02-24T16:17:54.319Z,24.55
2019-02-24T16:20:25.181Z,24.83
2019-02-24T16:22:54.553Z,24.79
2019-02-24T16:25:23.977Z,24.50
2019-02-24T16:27:53.775Z,25.39
2019-02-24T16:30:23.216Z,24.30
2019-02-24T16:32:52.641Z,25.16
2019-02-24T16:35:22.938Z,24.57
2019-02-24T16:37:53.066Z,24.17
2019-02-24T16:40:23.258Z,25.09
2019-02-24T16:42:53.309Z,25.10
2019-02-24T16:45:22.776Z,25.17
2019-02-24T16:47:52.290Z,24.83
2019-02-24T16:50:21.894Z,25.81
2019-02-24T16:52:52.620Z,25.86
2019-02-24T16:55:22.240Z,26.29
2019-02-24T16:57:52.021Z,26.72
2019-02-24T17:00:21.530Z,26.80
2019-02-24T17:02:50.923Z,27.20
2019-02-24T17:05:20.806Z,27.04
2019-02-24T17:07:50.302Z,27.67
2019-02-24T17:10:20.223Z,27.40
2019-02-24T17:12:49.608Z,28.96
2019-02-24T17:15:18.983Z,27.07
2019-02-24T17:17:48.369Z,27.75
2019-02-24T17:20:18.544Z,27.96
2019-02-24T17:22:47.948Z,28.67
2019-02-24T17:25:17.459Z,28.71
2019-02-24T17:27:46.870Z,28.72
2019-02-24T17:30:16.587Z,30.68
2019-02-24T17:32:46.024Z,31.64
2019-02-24T17:35:15.936Z,31.19
2019-02-24T17:37:45.351Z,31.12
2019-02-24T17:40:15.018Z,30.32
2019-02-24T17:42:44.402Z,30.34
2019-02-24T17:45:14.116Z,30.71
2019-02-24T17:47:43.612Z,30.67
2019-02-24T17:50:13.648Z,30.82
2019-02-24T17:52:43.082Z,31.75
2019-02-24T17:55:13.340Z,31.39
2019-02-24T17:57:42.926Z,31.39
2019-02-24T18:00:26.951Z,30.23
2019-02-24T18:02:56.374Z,30.85
2019-02-24T18:05:25.801Z,37.14
2019-02-24T18:07:55.425Z,33.59
2019-02-24T18:10:24.797Z,33.59
2019-02-24T18:12:54.249Z,33.34
2019-02-24T18:15:23.619Z,35.08
2019-02-24T18:17:53.010Z,35.80
2019-02-24T18:20:22.435Z,35.35
2019-02-24T18:22:51.942Z,35.78
2019-02-24T18:25:21.314Z,35.78
2019-02-24T18:27:50.684Z,34.89
2019-02-24T18:30:22.090Z,34.91
2019-02-24T18:32:51.688Z,34.91
2019-02-24T18:35:21.139Z,35.97
2019-02-24T18:37:50.543Z,35.64
2019-02-24T18:40:20.043Z,34.75
2019-02-24T18:42:49.651Z,35.45
2019-02-24T18:45:19.028Z,35.46
2019-02-24T18:47:49.858Z,35.89
2019-02-24T18:50:19.310Z,36.05
2019-02-24T18:52:49.046Z,35.52
2019-02-24T18:55:18.729Z,35.35
2019-02-24T18:57:48.139Z,36.62
2019-02-24T19:00:18.579Z,36.39
2019-02-24T19:02:47.956Z,37.46
2019-02-24T19:05:17.365Z,38.07
2019-02-24T19:07:46.843Z,38.79
2019-02-24T19:10:16.625Z,39.83
2019-02-24T19:12:46.218Z,39.16
2019-02-24T19:15:17.039Z,40.30
2019-02-24T19:17:46.475Z,39.33
2019-02-24T19:20:17.627Z,39.58
2019-02-24T19:22:47.057Z,39.64
2019-02-24T19:25:16.776Z,39.46
2019-02-24T19:27:46.221Z,39.57
2019-02-24T19:30:16.478Z,41.44
2019-02-24T19:32:46.340Z,40.86
2019-02-24T19:35:16.320Z,41.27
2019-02-24T19:37:45.974Z,42.30
2019-02-24T19:40:16.756Z,42.76
2019-02-24T19:42:46.265Z,43.94
2019-02-24T19:45:17.012Z,44.80
2019-02-24T19:47:46.455Z,44.90
2019-02-24T19:50:17.247Z,45.83
2019-02-24T19:52:46.741Z,45.92
2019-02-24T19:55:16.196Z,46.21
2019-02-24T19:57:45.588Z,45.73
2019-02-24T20:00:18.318Z,45.60
2019-02-24T20:02:47.791Z,46.50
2019-02-24T20:05:17.317Z,45.41
2019-02-24T20:07:46.860Z,44.86
2019-02-24T20:10:18.382Z,45.88
2019-02-24T20:12:47.844Z,45.80
2019-02-24T20:15:17.329Z,46.26
2019-02-24T20:17:46.744Z,46.06
2019-02-24T20:20:16.552Z,46.52
2019-02-24T20:22:46.037Z,46.05
2019-02-24T20:25:15.466Z,46.29
2019-02-24T20:27:44.853Z,46.33
2019-02-24T20:30:16.932Z,46.59
2019-02-24T20:32:46.367Z,47.14
2019-02-24T20:35:15.786Z,47.53
2019-02-24T20:37:45.187Z,46.64
2019-02-24T20:40:14.586Z,46.34
2019-02-24T20:42:44.007Z,47.68
2019-02-24T20:45:14.943Z,47.01
2019-02-24T20:47:44.479Z,47.08
2019-02-24T20:50:15.300Z,46.88
2019-02-24T20:52:44.708Z,47.99
2019-02-24T20:55:14.234Z,49.14
2019-02-24T20:57:43.631Z,48.03
2019-02-24T21:00:34.701Z,47.96
2019-02-24T21:03:04.143Z,47.94
2019-02-24T21:05:33.692Z,48.07
2019-02-24T21:08:03.102Z,47.92
2019-02-24T21:10:32.526Z,48.42
2019-02-24T21:13:01.913Z,48.73
2019-02-24T21:15:31.313Z,48.97
2019-02-24T21:18:00.730Z,48.83
2019-02-24T21:20:30.132Z,49.23
2019-02-24T21:22:59.587Z,49.25
2019-02-24T21:25:28.987Z,48.80
2019-02-24T21:27:58.380Z,49.19
2019-02-24T21:30:27.799Z,50.10
2019-02-24T21:32:57.192Z,50.55
2019-02-24T21:35:26.617Z,50.94
2019-02-24T21:37:56.006Z,50.29
2019-02-24T21:40:25.539Z,51.52
2019-02-24T21:42:54.944Z,50.98
2019-02-24T21:45:24.716Z,50.77
2019-02-24T21:47:54.105Z,51.97
2019-02-24T21:50:23.486Z,52.87
2019-02-24T21:52:52.980Z,52.01
2019-02-24T21:55:22.391Z,52.56
2019-02-24T21:57:51.818Z,50.91
2019-02-24T22:00:22.157Z,50.78
2019-02-24T22:02:51.528Z,51.39
2019-02-24T22:05:21.019Z,51.08
2019-02-24T22:07:50.402Z,50.50
2019-02-24T22:10:19.802Z,50.44
2019-02-24T22:12:49.190Z,51.27
2019-02-24T22:15:19.119Z,50.67
2019-02-24T22:17:48.524Z,51.18
2019-02-24T22:20:17.924Z,51.57
2019-02-24T22:22:47.343Z,51.82
2019-02-24T22:25:16.754Z,51.45
2019-02-24T22:27:46.327Z,52.95
2019-02-24T22:30:17.047Z,51.76
2019-02-24T22:32:46.534Z,51.91
2019-02-24T22:35:16.079Z,52.13
2019-02-24T22:37:45.673Z,51.60
2019-02-24T22:40:16.705Z,52.21
2019-02-24T22:42:46.421Z,50.41
2019-02-24T22:45:17.072Z,50.32
2019-02-24T22:47:46.867Z,51.24
2019-02-24T22:50:16.795Z,50.48
2019-02-24T22:52:46.582Z,49.74
2019-02-24T22:55:16.379Z,49.40
2019-02-24T22:57:45.860Z,48.86
2019-02-24T23:00:58.663Z,49.69
2019-02-24T23:03:30.890Z,50.12
2019-02-24T23:06:00.399Z,47.75
2019-02-24T23:08:29.851Z,47.02
2019-02-24T23:10:59.300Z,46.31
2019-02-24T23:13:28.896Z,47.39
2019-02-24T23:15:58.421Z,47.92
2019-02-24T23:18:27.907Z,48.35
2019-02-24T23:20:57.391Z,49.31
2019-02-24T23:23:26.795Z,49.39
2019-02-24T23:25:56.282Z,49.87
2019-02-24T23:28:25.755Z,50.92
2019-02-24T23:30:55.311Z,52.27
2019-02-24T23:33:24.811Z,53.06
2019-02-24T23:35:54.304Z,53.43
2019-02-24T23:38:23.874Z,53.69
2019-02-24T23:40:53.335Z,53.70
2019-02-24T23:43:22.853Z,53.48
2019-02-24T23:45:52.356Z,52.86
2019-02-24T23:48:21.841Z,53.48
2019-02-24T23:50:51.335Z,53.67
2019-02-24T23:53:20.803Z,52.04
2019-02-24T23:55:50.274Z,51.02
2019-02-24T23:58:19.766Z,50.21
